createdAt,value
2023-04-18T00:00:48.656Z,54.98
2023-04-18T00:03:15.076Z,54.88
2023-04-18T00:05:41.456Z,55.76
2023-04-18T00:08:07.708Z,56.56
2023-04-18T00:10:33.978Z,57.36
2023-04-18T00:13:00.226Z,57.99
2023-04-18T00:15:26.467Z,59.13
2023-04-18T00:17:52.841Z,59.89
2023-04-18T00:20:19.124Z,58.63
2023-04-18T00:22:45.359Z,58.24
2023-04-18T00:25:11.590Z,58.64
2023-04-18T00:27:37.829Z,57.96
2023-04-18T00:30:04.108Z,57.76
2023-04-18T00:32:30.441Z,58.42
2023-04-18T00:34:56.692Z,58.18
2023-04-18T00:37:22.959Z,59.25
2023-04-18T00:39:49.197Z,58.56
2023-04-18T00:42:15.420Z,57.79
2023-04-18T00:44:41.651Z,56.50
2023-04-18T00:47:07.903Z,55.57
2023-04-18T00:49:34.195Z,55.84
2023-04-18T00:52:00.458Z,55.37
2023-04-18T00:54:26.677Z,55.49
2023-04-18T00:56:52.924Z,55.17
2023-04-18T00:59:19.171Z,55.00
2023-04-18T01:01:45.488Z,55.18
2023-04-18T01:04:12.224Z,56.28
2023-04-18T01:06:38.842Z,57.30
2023-04-18T01:09:05.074Z,58.08
2023-04-18T01:11:31.346Z,58.64
2023-04-18T01:13:57.601Z,58.58
2023-04-18T01:16:23.925Z,57.62
2023-04-18T01:18:50.312Z,57.85
2023-04-18T01:21:16.578Z,58.08
2023-04-18T01:23:42.851Z,58.02
2023-04-18T01:26:09.087Z,58.19
2023-04-18T01:28:35.345Z,58.83
2023-04-18T01:31:01.803Z,58.54
2023-04-18T01:33:28.110Z,59.32
2023-04-18T01:35:54.372Z,58.75
2023-04-18T01:38:20.644Z,57.86
2023-04-18T01:40:46.898Z,57.24
2023-04-18T01:43:13.178Z,56.65
2023-04-18T01:45:39.450Z,56.27
2023-04-18T01:48:05.677Z,55.66
2023-04-18T01:50:31.960Z,55.69
2023-04-18T01:52:58.260Z,56.56
2023-04-18T01:55:24.502Z,58.23
2023-04-18T01:57:50.736Z,59.74
2023-04-18T02:00:16.964Z,58.96
2023-04-18T02:02:43.435Z,58.40
2023-04-18T02:05:09.874Z,58.20
2023-04-18T02:07:36.103Z,57.85
2023-04-18T02:10:02.339Z,57.96
2023-04-18T02:12:28.584Z,58.04
2023-04-18T02:14:54.850Z,59.17
2023-04-18T02:17:21.183Z,59.60
2023-04-18T02:19:47.452Z,59.33
2023-04-18T02:22:13.671Z,59.30
2023-04-18T02:24:39.920Z,58.99
2023-04-18T02:27:06.215Z,59.39
2023-04-18T02:29:32.500Z,59.06
2023-04-18T02:31:58.783Z,58.52
2023-04-18T02:34:25.024Z,57.19
2023-04-18T02:36:51.267Z,56.43
2023-04-18T02:39:17.536Z,56.15
2023-04-18T02:41:43.795Z,55.71
2023-04-18T02:44:10.055Z,55.89
2023-04-18T02:46:36.281Z,56.74
2023-04-18T02:49:02.508Z,56.85
2023-04-18T02:51:28.737Z,57.81
2023-04-18T02:53:54.993Z,57.62
2023-04-18T02:56:21.312Z,58.08
2023-04-18T02:58:47.562Z,58.99
2023-04-18T03:01:13.813Z,58.65
2023-04-18T03:03:40.064Z,58.78
2023-04-18T03:06:06.343Z,58.35
2023-04-18T03:08:32.647Z,58.70
2023-04-18T03:10:58.900Z,58.87
2023-04-18T03:13:25.181Z,58.56
2023-04-18T03:15:51.502Z,58.31
2023-04-18T03:18:17.746Z,57.24
2023-04-18T03:20:43.992Z,57.19
2023-04-18T03:23:10.294Z,56.59
2023-04-18T03:25:36.600Z,56.96
2023-04-18T03:28:02.882Z,57.37
2023-04-18T03:30:29.183Z,58.52
2023-04-18T03:32:55.498Z,58.54
2023-04-18T03:35:21.730Z,58.83
2023-04-18T03:37:47.989Z,58.49
2023-04-18T03:40:14.262Z,57.38
2023-04-18T03:42:40.520Z,56.21
2023-04-18T03:45:06.746Z,55.91
2023-04-18T03:47:32.998Z,56.82
2023-04-18T03:49:59.246Z,57.08
2023-04-18T03:52:25.852Z,58.43
2023-04-18T03:54:52.788Z,58.19
2023-04-18T03:57:19.050Z,59.56
2023-04-18T03:59:47.734Z,59.04
2023-04-18T04:02:14.279Z,58.91
2023-04-18T04:04:40.679Z,58.73
2023-04-18T04:07:06.982Z,58.08
2023-04-18T04:09:33.217Z,58.14
2023-04-18T04:11:59.459Z,58.44
2023-04-18T04:14:25.703Z,59.21
2023-04-18T04:16:51.982Z,59.90
2023-04-18T04:19:18.221Z,60.10
2023-04-18T04:21:44.454Z,61.96
2023-04-18T04:24:10.693Z,62.37
2023-04-18T04:26:36.948Z,62.43
2023-04-18T04:29:03.215Z,62.77
2023-04-18T04:31:29.519Z,62.12
2023-04-18T04:33:55.878Z,62.24
2023-04-18T04:36:22.111Z,62.26
2023-04-18T04:38:48.375Z,61.19
2023-04-18T04:41:14.614Z,60.36
2023-04-18T04:43:40.874Z,59.62
2023-04-18T04:46:07.107Z,59.12
2023-04-18T04:48:33.349Z,58.87
2023-04-18T04:50:59.638Z,58.77
2023-04-18T04:53:25.857Z,58.41
2023-04-18T04:55:52.106Z,57.31
2023-04-18T04:58:18.390Z,58.46
2023-04-18T05:00:44.630Z,60.12
2023-04-18T05:03:11.017Z,60.01
2023-04-18T05:05:37.361Z,60.61
2023-04-18T05:08:03.608Z,59.93
2023-04-18T05:10:29.835Z,59.44
2023-04-18T05:12:56.072Z,59.26
2023-04-18T05:15:22.368Z,58.27
2023-04-18T05:17:48.675Z,57.82
2023-04-18T05:20:15.025Z,59.47
2023-04-18T05:22:41.282Z,60.26
2023-04-18T05:25:07.562Z,59.92
2023-04-18T05:27:33.876Z,59.64
2023-04-18T05:30:00.188Z,57.93
2023-04-18T05:32:26.474Z,56.06
2023-04-18T05:34:52.734Z,55.88
2023-04-18T05:37:18.948Z,56.07
2023-04-18T05:39:45.212Z,56.75
2023-04-18T05:42:11.493Z,56.11
2023-04-18T05:44:37.721Z,56.86
2023-04-18T05:47:03.967Z,57.52
2023-04-18T05:49:30.210Z,57.74
2023-04-18T05:51:56.487Z,57.69
2023-04-18T05:54:22.792Z,58.88
2023-04-18T05:56:49.014Z,57.56
2023-04-18T05:59:15.305Z,55.96
2023-04-18T06:01:41.594Z,53.00
2023-04-18T06:04:07.923Z,50.63
2023-04-18T06:06:34.306Z,51.22
2023-04-18T06:09:00.549Z,51.43
2023-04-18T06:11:26.793Z,52.07
2023-04-18T06:13:53.074Z,51.14
2023-04-18T06:16:19.351Z,52.23
2023-04-18T06:18:45.597Z,54.37
2023-04-18T06:21:11.824Z,53.99
2023-04-18T06:23:38.061Z,53.88
2023-04-18T06:26:04.335Z,54.42
2023-04-18T06:28:30.639Z,55.27
2023-04-18T06:30:56.880Z,56.91
2023-04-18T06:33:23.131Z,55.27
2023-04-18T06:35:49.383Z,56.47
2023-04-18T06:38:15.662Z,56.09
2023-04-18T06:40:41.931Z,56.02
2023-04-18T06:43:08.163Z,54.34
2023-04-18T06:45:34.453Z,54.66
2023-04-18T06:48:00.774Z,52.89
2023-04-18T06:50:27.026Z,54.97
2023-04-18T06:52:53.272Z,52.90
2023-04-18T06:55:19.503Z,56.19
2023-04-18T06:57:45.742Z,52.24
2023-04-18T07:00:11.967Z,51.52
2023-04-18T07:02:38.388Z,51.15
2023-04-18T07:05:04.779Z,54.28
2023-04-18T07:07:31.036Z,56.79
2023-04-18T07:09:57.274Z,55.29
2023-04-18T07:12:23.572Z,56.87
2023-04-18T07:14:49.819Z,56.73
2023-04-18T07:17:16.245Z,55.25
2023-04-18T07:19:42.550Z,54.50
2023-04-18T07:22:08.783Z,54.58
2023-04-18T07:24:35.025Z,56.31
2023-04-18T07:27:01.347Z,55.36
2023-04-18T07:29:27.735Z,55.08
2023-04-18T07:31:54.085Z,56.31
2023-04-18T07:34:20.417Z,56.13
2023-04-18T07:36:46.694Z,57.28
2023-04-18T07:39:12.925Z,58.57
2023-04-18T07:41:39.197Z,55.65
2023-04-18T07:44:05.439Z,57.10
2023-04-18T07:46:31.710Z,57.33
2023-04-18T07:48:57.985Z,56.36
2023-04-18T07:51:24.236Z,55.74
2023-04-18T07:53:50.482Z,55.45
2023-04-18T07:56:16.720Z,57.53
2023-04-18T07:58:42.955Z,55.87
2023-04-18T08:01:09.243Z,56.39
2023-04-18T08:03:35.588Z,55.22
2023-04-18T08:06:01.928Z,56.92
2023-04-18T08:08:28.233Z,54.85
2023-04-18T08:10:54.474Z,53.01
2023-04-18T08:13:20.737Z,53.31
2023-04-18T08:15:47.069Z,53.67
2023-04-18T08:18:13.348Z,50.81
2023-04-18T08:20:39.616Z,49.56
2023-04-18T08:23:09.549Z,49.47
2023-04-18T08:25:37.664Z,51.43
2023-04-18T08:28:05.295Z,50.87
2023-04-18T08:30:31.669Z,50.22
2023-04-18T08:32:58.009Z,49.55
2023-04-18T08:35:24.360Z,50.49
2023-04-18T08:37:50.595Z,50.34
2023-04-18T08:40:16.875Z,49.32
2023-04-18T08:42:43.137Z,49.45
2023-04-18T08:45:09.364Z,47.49
2023-04-18T08:47:35.654Z,47.95
2023-04-18T08:50:01.937Z,46.08
2023-04-18T08:52:28.188Z,46.47
2023-04-18T08:54:54.604Z,46.07
2023-04-18T08:57:21.078Z,47.14
2023-04-18T08:59:49.626Z,43.77
2023-04-18T09:02:17.149Z,45.38
2023-04-18T09:04:43.403Z,47.40
2023-04-18T09:07:09.653Z,44.65
2023-04-18T09:09:35.908Z,43.42
2023-04-18T09:12:02.142Z,47.90
2023-04-18T09:14:28.377Z,46.16
2023-04-18T09:16:54.662Z,46.92
2023-04-18T09:19:20.940Z,45.64
2023-04-18T09:21:47.206Z,45.46
2023-04-18T09:24:13.633Z,46.25
2023-04-18T09:26:40.073Z,48.87
2023-04-18T09:29:06.325Z,46.22
2023-04-18T09:31:32.757Z,46.52
2023-04-18T09:33:59.135Z,46.43
2023-04-18T09:36:25.399Z,45.78
2023-04-18T09:38:53.711Z,47.01
2023-04-18T09:41:21.770Z,45.91
2023-04-18T09:43:48.024Z,44.99
2023-04-18T09:46:14.339Z,42.90
2023-04-18T09:48:40.643Z,42.66
2023-04-18T09:51:06.918Z,44.99
2023-04-18T09:53:33.190Z,44.29
2023-04-18T09:55:59.430Z,42.68
2023-04-18T09:58:25.645Z,41.64
2023-04-18T10:00:51.902Z,44.68
2023-04-18T10:03:18.407Z,44.12
2023-04-18T10:05:44.853Z,42.91
2023-04-18T10:08:11.126Z,43.76
2023-04-18T10:10:38.919Z,45.11
2023-04-18T10:13:05.454Z,42.92
2023-04-18T10:15:31.767Z,42.00
2023-04-18T10:18:04.339Z,44.12
2023-04-18T10:20:32.250Z,43.29
2023-04-18T10:22:58.504Z,38.54
2023-04-18T10:25:24.757Z,40.10
2023-04-18T10:27:51.036Z,42.11
2023-04-18T10:30:17.326Z,37.32
2023-04-18T10:32:43.592Z,40.26
2023-04-18T10:35:09.829Z,39.62
2023-04-18T10:37:36.071Z,40.68
2023-04-18T10:40:02.316Z,38.00
2023-04-18T10:42:28.562Z,36.30
2023-04-18T10:44:54.821Z,37.64
2023-04-18T10:47:21.189Z,36.45
2023-04-18T10:49:47.498Z,36.18
2023-04-18T10:52:13.742Z,36.13
2023-04-18T10:54:40.010Z,35.16
2023-04-18T10:57:06.295Z,35.69
2023-04-18T10:59:32.603Z,34.98
2023-04-18T11:01:58.991Z,36.65
2023-04-18T11:04:25.366Z,36.91
2023-04-18T11:06:51.740Z,41.05
2023-04-18T11:09:18.045Z,36.79
2023-04-18T11:11:44.352Z,38.77
2023-04-18T11:14:10.614Z,37.23
2023-04-18T11:16:36.892Z,37.77
2023-04-18T11:19:03.160Z,37.23
2023-04-18T11:21:30.616Z,37.11
2023-04-18T11:23:57.184Z,37.67
2023-04-18T11:26:23.500Z,36.14
2023-04-18T11:28:49.767Z,38.78
2023-04-18T11:31:16.028Z,42.23
2023-04-18T11:33:42.289Z,39.35
2023-04-18T11:36:08.557Z,40.92
2023-04-18T11:38:34.801Z,38.87
2023-04-18T11:41:01.055Z,38.14
2023-04-18T11:43:27.309Z,38.70
2023-04-18T11:45:53.580Z,37.29
2023-04-18T11:48:19.851Z,36.75
2023-04-18T11:50:46.095Z,37.05
2023-04-18T11:53:12.341Z,35.48
2023-04-18T11:55:38.577Z,33.80
2023-04-18T11:58:04.842Z,40.47
2023-04-18T12:00:31.130Z,40.14
2023-04-18T12:02:57.563Z,39.05
2023-04-18T12:05:24.458Z,39.37
2023-04-18T12:07:50.929Z,34.52
2023-04-18T12:10:17.398Z,38.10
2023-04-18T12:12:43.645Z,40.01
2023-04-18T12:15:09.906Z,37.68
2023-04-18T12:17:36.215Z,34.32
2023-04-18T12:20:02.520Z,35.31
2023-04-18T12:22:28.791Z,37.71
2023-04-18T12:24:55.050Z,33.95
2023-04-18T12:27:21.328Z,31.28
2023-04-18T12:29:47.563Z,35.69
2023-04-18T12:32:13.804Z,31.06
2023-04-18T12:34:40.120Z,32.15
2023-04-18T12:37:06.410Z,32.41
2023-04-18T12:39:32.707Z,30.14
2023-04-18T12:41:59.010Z,30.86
2023-04-18T12:44:25.289Z,31.24
2023-04-18T12:46:51.618Z,33.39
2023-04-18T12:49:17.953Z,31.53
2023-04-18T12:51:44.179Z,30.77
2023-04-18T12:54:10.436Z,29.55
2023-04-18T12:56:36.671Z,30.45
2023-04-18T12:59:02.986Z,30.82
2023-04-18T13:01:29.472Z,29.78
2023-04-18T13:04:08.366Z,27.88
2023-04-18T13:06:38.468Z,26.75
2023-04-18T13:09:04.728Z,28.51
2023-04-18T13:11:31.086Z,31.89
2023-04-18T13:13:57.366Z,26.62
2023-04-18T13:16:23.678Z,31.02
2023-04-18T13:18:50.058Z,32.57
2023-04-18T13:21:16.363Z,29.73
2023-04-18T13:23:42.614Z,30.86
2023-04-18T13:26:08.851Z,29.88
2023-04-18T13:28:35.125Z,27.36
2023-04-18T13:31:01.395Z,29.64
2023-04-18T13:33:27.668Z,31.81
2023-04-18T13:35:53.955Z,31.54
2023-04-18T13:38:20.263Z,31.64
2023-04-18T13:40:46.491Z,31.10
2023-04-18T13:43:12.767Z,32.66
2023-04-18T13:45:39.059Z,30.03
2023-04-18T13:48:05.395Z,31.18
2023-04-18T13:50:31.687Z,30.54
2023-04-18T13:52:57.925Z,27.84
2023-04-18T13:55:24.179Z,27.76
2023-04-18T13:57:50.454Z,32.86
2023-04-18T14:00:16.788Z,29.03
2023-04-18T14:02:43.134Z,29.99
2023-04-18T14:05:09.589Z,28.75
2023-04-18T14:07:35.863Z,29.71
2023-04-18T14:10:02.209Z,34.89
2023-04-18T14:12:28.506Z,32.94
2023-04-18T14:14:54.747Z,33.97
2023-04-18T14:17:21.124Z,29.48
2023-04-18T14:19:47.440Z,28.55
2023-04-18T14:22:13.672Z,29.98
2023-04-18T14:24:39.989Z,30.23
2023-04-18T14:27:06.243Z,30.78
2023-04-18T14:29:32.488Z,32.44
2023-04-18T14:31:58.729Z,31.99
2023-04-18T14:34:25.004Z,30.44
2023-04-18T14:36:51.276Z,31.99
2023-04-18T14:39:17.535Z,33.08
2023-04-18T14:41:43.800Z,32.17
2023-04-18T14:44:10.133Z,32.66
2023-04-18T14:46:36.395Z,33.87
2023-04-18T14:49:02.656Z,32.38
2023-04-18T14:51:28.879Z,30.02
2023-04-18T14:53:55.106Z,32.69
2023-04-18T14:56:21.343Z,33.32
2023-04-18T14:58:47.601Z,31.14
2023-04-18T15:01:13.864Z,34.30
2023-04-18T15:03:40.302Z,33.60
2023-04-18T15:06:06.654Z,32.14
2023-04-18T15:08:33.035Z,32.26
2023-04-18T15:10:59.324Z,31.22
2023-04-18T15:13:25.573Z,32.46
2023-04-18T15:15:51.846Z,30.25
2023-04-18T15:18:18.186Z,31.86
2023-04-18T15:20:44.505Z,30.47
2023-04-18T15:23:10.768Z,29.05
2023-04-18T15:25:37.052Z,31.23
2023-04-18T15:28:03.321Z,32.17
2023-04-18T15:30:29.593Z,33.50
2023-04-18T15:32:55.875Z,35.51
2023-04-18T15:35:22.130Z,35.02
2023-04-18T15:37:48.411Z,36.64
2023-04-18T15:40:14.702Z,34.22
2023-04-18T15:42:40.944Z,34.37
2023-04-18T15:45:07.201Z,34.83
2023-04-18T15:47:33.440Z,34.23
2023-04-18T15:49:59.708Z,33.14
2023-04-18T15:52:25.939Z,34.59
2023-04-18T15:54:52.189Z,36.40
2023-04-18T15:57:18.433Z,36.09
2023-04-18T15:59:44.577Z,35.54
2023-04-18T16:02:10.846Z,36.19
2023-04-18T16:04:39.816Z,34.53
2023-04-18T16:07:06.070Z,35.76
2023-04-18T16:09:32.330Z,34.69
2023-04-18T16:11:58.578Z,35.49
2023-04-18T16:14:24.811Z,36.15
2023-04-18T16:16:51.075Z,33.86
2023-04-18T16:19:17.651Z,34.74
2023-04-18T16:21:43.893Z,35.38
2023-04-18T16:24:10.136Z,36.16
2023-04-18T16:26:36.385Z,32.25
2023-04-18T16:29:02.622Z,34.26
2023-04-18T16:31:28.896Z,36.29
2023-04-18T16:33:55.368Z,37.16
2023-04-18T16:36:21.706Z,38.49
2023-04-18T16:38:47.947Z,39.28
2023-04-18T16:41:14.196Z,39.14
2023-04-18T16:43:40.436Z,39.61
2023-04-18T16:46:06.736Z,40.46
2023-04-18T16:48:33.060Z,38.66
2023-04-18T16:50:59.336Z,40.29
2023-04-18T16:53:25.577Z,39.42
2023-04-18T16:55:51.801Z,38.60
2023-04-18T16:58:18.090Z,40.32
2023-04-18T17:00:44.350Z,39.89
2023-04-18T17:03:10.782Z,37.87
2023-04-18T17:05:37.112Z,38.74
2023-04-18T17:08:03.379Z,38.37
2023-04-18T17:10:29.652Z,38.77
2023-04-18T17:12:55.987Z,39.62
2023-04-18T17:15:22.230Z,40.36
2023-04-18T17:17:49.494Z,39.75
2023-04-18T17:20:15.770Z,39.85
2023-04-18T17:22:41.977Z,39.00
2023-04-18T17:25:08.215Z,39.20
2023-04-18T17:27:34.460Z,38.76
2023-04-18T17:30:00.761Z,38.72
2023-04-18T17:32:27.125Z,37.51
2023-04-18T17:34:53.409Z,37.70
2023-04-18T17:37:19.697Z,38.71
2023-04-18T17:39:45.948Z,39.84
2023-04-18T17:42:12.221Z,37.07
2023-04-18T17:44:38.458Z,39.08
2023-04-18T17:47:04.732Z,38.33
2023-04-18T17:49:30.968Z,40.08
2023-04-18T17:51:57.193Z,38.88
2023-04-18T17:54:23.431Z,39.34
2023-04-18T17:56:49.671Z,39.96
2023-04-18T17:59:16.054Z,39.92
2023-04-18T18:01:42.377Z,39.87
2023-04-18T18:04:08.732Z,40.99
2023-04-18T18:06:35.002Z,40.33
2023-04-18T18:09:01.337Z,40.01
2023-04-18T18:11:27.662Z,41.36
2023-04-18T18:13:53.910Z,41.88
2023-04-18T18:16:20.180Z,42.00
2023-04-18T18:18:46.428Z,42.20
2023-04-18T18:21:12.674Z,42.03
2023-04-18T18:23:38.908Z,42.35
2023-04-18T18:26:05.197Z,44.63
2023-04-18T18:28:31.495Z,43.49
2023-04-18T18:30:57.803Z,44.28
2023-04-18T18:33:24.089Z,44.68
2023-04-18T18:35:50.347Z,45.25
2023-04-18T18:38:16.582Z,45.20
2023-04-18T18:40:42.826Z,44.60
2023-04-18T18:43:09.078Z,45.21
2023-04-18T18:45:35.317Z,45.47
2023-04-18T18:48:01.565Z,45.38
2023-04-18T18:50:27.823Z,44.22
2023-04-18T18:52:54.059Z,44.35
2023-04-18T18:55:20.305Z,44.88
2023-04-18T18:57:46.537Z,44.63
2023-04-18T19:00:12.774Z,46.01
2023-04-18T19:02:39.339Z,45.28
2023-04-18T19:05:05.850Z,45.35
2023-04-18T19:07:32.080Z,45.50
2023-04-18T19:09:58.331Z,45.48
2023-04-18T19:12:24.585Z,45.01
2023-04-18T19:14:50.859Z,44.95
2023-04-18T19:23:58.751Z,44.91
2023-04-18T19:26:25.002Z,45.76
2023-04-18T19:28:51.319Z,45.64
2023-04-18T19:31:17.595Z,45.47
2023-04-18T19:33:43.852Z,45.25
2023-04-18T19:36:10.074Z,45.39
2023-04-18T19:38:36.309Z,43.77
2023-04-18T19:41:02.542Z,42.83
2023-04-18T19:43:28.806Z,42.73
2023-04-18T19:45:55.354Z,42.65
2023-04-18T19:48:22.094Z,44.02
2023-04-18T19:50:48.347Z,44.22
2023-04-18T19:53:14.600Z,43.33
2023-04-18T19:55:40.837Z,43.16
2023-04-18T19:58:07.078Z,45.39
2023-04-18T20:00:33.321Z,47.36
2023-04-18T20:02:59.875Z,49.17
2023-04-18T20:05:26.303Z,49.64
2023-04-18T20:07:52.658Z,50.67
2023-04-18T20:10:18.917Z,49.24
2023-04-18T20:12:45.187Z,50.24
2023-04-18T20:15:11.429Z,50.82
2023-04-18T20:17:37.728Z,51.77
2023-04-18T20:20:03.984Z,50.28
2023-04-18T20:22:30.341Z,50.56
2023-04-18T20:24:56.557Z,50.41
2023-04-18T20:27:22.807Z,51.55
2023-04-18T20:29:49.060Z,51.74
2023-04-18T20:32:15.316Z,52.06
2023-04-18T20:34:41.581Z,53.42
2023-04-18T20:37:07.819Z,53.86
2023-04-18T20:39:34.072Z,54.19
2023-04-18T20:42:00.309Z,53.01
2023-04-18T20:44:26.547Z,51.94
2023-04-18T20:46:52.778Z,52.21
2023-04-18T20:49:19.027Z,51.16
2023-04-18T20:51:45.265Z,50.02
2023-04-18T20:54:11.494Z,48.69
2023-04-18T20:56:37.748Z,48.29
2023-04-18T20:59:04.013Z,46.98
2023-04-18T21:01:30.340Z,48.67
2023-04-18T21:03:56.923Z,49.07
2023-04-18T21:06:23.293Z,49.84
2023-04-18T21:08:49.536Z,50.73
2023-04-18T21:11:15.802Z,51.79
2023-04-18T21:13:42.053Z,51.70
2023-04-18T21:16:08.384Z,51.21
2023-04-18T21:18:34.675Z,51.76
2023-04-18T21:21:00.935Z,51.84
2023-04-18T21:23:27.170Z,51.69
2023-04-18T21:25:53.427Z,52.24
2023-04-18T21:28:19.680Z,51.28
2023-04-18T21:30:45.907Z,51.28
2023-04-18T21:33:12.176Z,51.63
2023-04-18T21:35:38.425Z,52.10
2023-04-18T21:38:04.678Z,52.90
2023-04-18T21:40:30.924Z,52.86
2023-04-18T21:42:57.165Z,52.53
2023-04-18T21:45:23.458Z,52.15
2023-04-18T21:47:49.814Z,54.37
2023-04-18T21:50:16.138Z,54.06
2023-04-18T21:52:42.359Z,52.03
2023-04-18T21:55:08.599Z,53.18
2023-04-18T21:57:34.854Z,52.66
2023-04-18T22:00:01.128Z,53.22
2023-04-18T22:02:27.507Z,51.64
2023-04-18T22:04:53.871Z,51.55
2023-04-18T22:07:20.138Z,52.64
2023-04-18T22:09:46.544Z,53.63
2023-04-18T22:12:12.845Z,54.06
2023-04-18T22:14:39.081Z,54.24
2023-04-18T22:17:05.309Z,53.64
2023-04-18T22:19:31.535Z,54.92
2023-04-18T22:21:57.755Z,54.27
2023-04-18T22:24:24.008Z,54.23
2023-04-18T22:26:50.258Z,53.42
2023-04-18T22:29:16.475Z,52.86
2023-04-18T22:31:42.702Z,52.69
2023-04-18T22:34:08.946Z,52.48
2023-04-18T22:36:35.192Z,52.29
2023-04-18T22:39:01.472Z,52.19
2023-04-18T22:41:27.720Z,52.55
2023-04-18T22:43:53.999Z,53.29
2023-04-18T22:46:20.302Z,53.82
2023-04-18T22:48:46.552Z,54.17
2023-04-18T22:51:12.798Z,54.74
2023-04-18T22:53:39.020Z,54.26
2023-04-18T22:56:05.255Z,53.50
2023-04-18T22:58:31.550Z,51.46
2023-04-18T23:00:57.829Z,51.17
2023-04-18T23:03:24.200Z,52.67
2023-04-18T23:05:50.592Z,52.14
2023-04-18T23:08:16.845Z,52.02
2023-04-18T23:10:43.081Z,53.86
2023-04-18T23:13:09.354Z,54.35
2023-04-18T23:15:35.715Z,53.50
2023-04-18T23:18:02.066Z,51.99
2023-04-18T23:20:28.363Z,52.20
2023-04-18T23:22:54.643Z,53.21
2023-04-18T23:25:20.919Z,53.77
2023-04-18T23:27:47.172Z,53.13
2023-04-18T23:30:13.418Z,54.13
2023-04-18T23:32:39.709Z,53.24
2023-04-18T23:35:05.998Z,51.62
2023-04-18T23:37:32.263Z,51.25
2023-04-18T23:39:58.496Z,50.34
2023-04-18T23:42:24.712Z,49.71
2023-04-18T23:44:50.937Z,48.79
2023-04-18T23:47:17.338Z,48.65
2023-04-18T23:49:43.719Z,47.14
2023-04-18T23:52:09.969Z,49.26
2023-04-18T23:54:36.200Z,49.95
2023-04-18T23:57:02.499Z,50.77
2023-04-18T23:59:28.775Z,50.59
